sensor_id;sensor_type;location;lat;lon;timestamp;P1;durP1;ratioP1;P2;durP2;ratioP2
1593;SDS011;790;47.000;16.084;2023-06-22T00:01:46;16.08;;;14.68;;
1593;SDS011;790;47.000;16.084;2023-06-22T00:04:13;16.77;;;14.93;;
1593;SDS011;790;47.000;16.084;2023-06-22T00:06:40;18.15;;;15.43;;
1593;SDS011;790;47.000;16.084;2023-06-22T00:09:08;17.40;;;15.45;;
1593;SDS011;790;47.000;16.084;2023-06-22T00:11:37;16.40;;;14.77;;
1593;SDS011;790;47.000;16.084;2023-06-22T00:14:04;16.40;;;14.55;;
1593;SDS011;790;47.000;16.084;2023-06-22T00:16:31;16.38;;;14.25;;
1593;SDS011;790;47.000;16.084;2023-06-22T00:18:59;15.82;;;13.63;;
1593;SDS011;790;47.000;16.084;2023-06-22T00:21:27;18.85;;;15.70;;
1593;SDS011;790;47.000;16.084;2023-06-22T00:23:54;16.90;;;14.57;;
1593;SDS011;790;47.000;16.084;2023-06-22T00:26:24;17.95;;;15.35;;
1593;SDS011;790;47.000;16.084;2023-06-22T00:28:53;14.45;;;13.15;;
1593;SDS011;790;47.000;16.084;2023-06-22T00:31:20;15.25;;;13.75;;
1593;SDS011;790;47.000;16.084;2023-06-22T00:33:47;18.13;;;14.25;;
1593;SDS011;790;47.000;16.084;2023-06-22T00:36:16;16.75;;;15.07;;
1593;SDS011;790;47.000;16.084;2023-06-22T00:38:45;15.60;;;14.10;;
1593;SDS011;790;47.000;16.084;2023-06-22T00:41:13;14.90;;;13.50;;
1593;SDS011;790;47.000;16.084;2023-06-22T00:43:45;14.73;;;13.38;;
1593;SDS011;790;47.000;16.084;2023-06-22T00:46:13;15.00;;;13.50;;
1593;SDS011;790;47.000;16.084;2023-06-22T00:48:41;15.93;;;14.02;;
1593;SDS011;790;47.000;16.084;2023-06-22T00:51:09;19.20;;;13.57;;
1593;SDS011;790;47.000;16.084;2023-06-22T00:53:37;14.50;;;13.20;;
1593;SDS011;790;47.000;16.084;2023-06-22T00:56:04;13.43;;;12.23;;
1593;SDS011;790;47.000;16.084;2023-06-22T00:58:35;14.18;;;12.77;;
1593;SDS011;790;47.000;16.084;2023-06-22T01:01:05;17.02;;;15.52;;
1593;SDS011;790;47.000;16.084;2023-06-22T01:03:32;15.38;;;14.02;;
1593;SDS011;790;47.000;16.084;2023-06-22T01:06:01;14.85;;;13.48;;
1593;SDS011;790;47.000;16.084;2023-06-22T01:08:36;15.32;;;13.93;;
1593;SDS011;790;47.000;16.084;2023-06-22T01:11:20;16.33;;;14.75;;
1593;SDS011;790;47.000;16.084;2023-06-22T01:13:55;16.40;;;14.82;;
1593;SDS011;790;47.000;16.084;2023-06-22T01:16:33;16.75;;;15.25;;
1593;SDS011;790;47.000;16.084;2023-06-22T01:19:05;15.48;;;14.07;;
1593;SDS011;790;47.000;16.084;2023-06-22T01:21:37;17.00;;;15.10;;
1593;SDS011;790;47.000;16.084;2023-06-22T01:24:10;16.48;;;14.15;;
1593;SDS011;790;47.000;16.084;2023-06-22T01:26:46;14.65;;;13.32;;
1593;SDS011;790;47.000;16.084;2023-06-22T01:29:25;16.70;;;15.00;;
1593;SDS011;790;47.000;16.084;2023-06-22T01:31:53;15.70;;;14.15;;
1593;SDS011;790;47.000;16.084;2023-06-22T01:34:22;15.45;;;14.10;;
1593;SDS011;790;47.000;16.084;2023-06-22T01:36:50;16.55;;;14.80;;
1593;SDS011;790;47.000;16.084;2023-06-22T01:39:19;16.85;;;15.02;;
1593;SDS011;790;47.000;16.084;2023-06-22T01:41:47;15.80;;;14.18;;
1593;SDS011;790;47.000;16.084;2023-06-22T01:44:15;16.13;;;14.63;;
1593;SDS011;790;47.000;16.084;2023-06-22T01:46:44;17.88;;;16.17;;
1593;SDS011;790;47.000;16.084;2023-06-22T01:49:12;19.17;;;16.95;;
1593;SDS011;790;47.000;16.084;2023-06-22T01:51:39;18.17;;;16.48;;
1593;SDS011;790;47.000;16.084;2023-06-22T01:54:06;17.75;;;15.98;;
1593;SDS011;790;47.000;16.084;2023-06-22T01:56:34;17.80;;;16.27;;
1593;SDS011;790;47.000;16.084;2023-06-22T01:59:04;16.52;;;14.85;;
1593;SDS011;790;47.000;16.084;2023-06-22T02:01:41;15.85;;;14.30;;
1593;SDS011;790;47.000;16.084;2023-06-22T02:04:17;16.58;;;14.95;;
1593;SDS011;790;47.000;16.084;2023-06-22T02:06:50;16.02;;;14.38;;
1593;SDS011;790;47.000;16.084;2023-06-22T02:09:22;15.65;;;14.15;;
1593;SDS011;790;47.000;16.084;2023-06-22T02:11:50;16.90;;;15.27;;
1593;SDS011;790;47.000;16.084;2023-06-22T02:14:21;17.83;;;16.10;;
1593;SDS011;790;47.000;16.084;2023-06-22T02:16:51;18.55;;;16.55;;
1593;SDS011;790;47.000;16.084;2023-06-22T02:19:22;17.70;;;15.95;;
1593;SDS011;790;47.000;16.084;2023-06-22T02:21:51;15.68;;;14.27;;
1593;SDS011;790;47.000;16.084;2023-06-22T02:24:18;16.98;;;15.30;;
1593;SDS011;790;47.000;16.084;2023-06-22T02:26:48;17.20;;;15.55;;
1593;SDS011;790;47.000;16.084;2023-06-22T02:29:16;15.82;;;14.35;;
1593;SDS011;790;47.000;16.084;2023-06-22T02:31:44;16.85;;;15.20;;
1593;SDS011;790;47.000;16.084;2023-06-22T02:34:16;15.55;;;14.05;;
1593;SDS011;790;47.000;16.084;2023-06-22T02:36:46;18.25;;;16.35;;
1593;SDS011;790;47.000;16.084;2023-06-22T02:39:18;18.48;;;16.58;;
1593;SDS011;790;47.000;16.084;2023-06-22T02:41:48;17.30;;;15.60;;
1593;SDS011;790;47.000;16.084;2023-06-22T02:44:17;16.95;;;15.23;;
1593;SDS011;790;47.000;16.084;2023-06-22T02:46:47;18.20;;;16.48;;
1593;SDS011;790;47.000;16.084;2023-06-22T02:49:16;18.15;;;16.30;;
1593;SDS011;790;47.000;16.084;2023-06-22T02:51:45;16.75;;;15.10;;
1593;SDS011;790;47.000;16.084;2023-06-22T02:54:14;15.38;;;13.85;;
1593;SDS011;790;47.000;16.084;2023-06-22T02:56:42;17.20;;;15.50;;
1593;SDS011;790;47.000;16.084;2023-06-22T02:59:11;18.73;;;15.50;;
1593;SDS011;790;47.000;16.084;2023-06-22T03:01:38;16.60;;;14.95;;
1593;SDS011;790;47.000;16.084;2023-06-22T03:04:06;17.45;;;15.50;;
1593;SDS011;790;47.000;16.084;2023-06-22T03:06:35;18.02;;;15.45;;
1593;SDS011;790;47.000;16.084;2023-06-22T03:09:02;16.08;;;14.68;;
1593;SDS011;790;47.000;16.084;2023-06-22T03:11:30;16.42;;;14.93;;
1593;SDS011;790;47.000;16.084;2023-06-22T03:13:58;15.20;;;13.95;;
1593;SDS011;790;47.000;16.084;2023-06-22T03:16:31;15.93;;;14.52;;
1593;SDS011;790;47.000;16.084;2023-06-22T03:19:00;17.23;;;14.88;;
1593;SDS011;790;47.000;16.084;2023-06-22T03:21:27;17.40;;;15.63;;
1593;SDS011;790;47.000;16.084;2023-06-22T03:23:56;17.17;;;15.48;;
1593;SDS011;790;47.000;16.084;2023-06-22T03:26:26;20.90;;;18.70;;
1593;SDS011;790;47.000;16.084;2023-06-22T03:28:55;22.20;;;19.60;;
1593;SDS011;790;47.000;16.084;2023-06-22T03:31:23;19.58;;;17.70;;
1593;SDS011;790;47.000;16.084;2023-06-22T03:33:50;18.38;;;16.58;;
1593;SDS011;790;47.000;16.084;2023-06-22T03:36:18;19.02;;;16.33;;
1593;SDS011;790;47.000;16.084;2023-06-22T03:38:46;17.42;;;15.70;;
1593;SDS011;790;47.000;16.084;2023-06-22T03:41:14;16.90;;;15.40;;
1593;SDS011;790;47.000;16.084;2023-06-22T03:43:41;16.73;;;14.90;;
1593;SDS011;790;47.000;16.084;2023-06-22T03:46:08;15.60;;;14.18;;
1593;SDS011;790;47.000;16.084;2023-06-22T03:48:42;17.02;;;15.43;;
1593;SDS011;790;47.000;16.084;2023-06-22T03:51:09;17.95;;;16.10;;
1593;SDS011;790;47.000;16.084;2023-06-22T03:53:38;17.10;;;15.35;;
1593;SDS011;790;47.000;16.084;2023-06-22T03:58:37;17.52;;;15.07;;
1593;SDS011;790;47.000;16.084;2023-06-22T04:01:13;16.45;;;14.90;;
1593;SDS011;790;47.000;16.084;2023-06-22T04:03:42;17.77;;;16.08;;
1593;SDS011;790;47.000;16.084;2023-06-22T04:06:09;18.80;;;16.17;;
1593;SDS011;790;47.000;16.084;2023-06-22T04:08:36;17.80;;;16.17;;
1593;SDS011;790;47.000;16.084;2023-06-22T04:11:05;17.05;;;15.38;;
1593;SDS011;790;47.000;16.084;2023-06-22T04:13:34;17.25;;;15.65;;
1593;SDS011;790;47.000;16.084;2023-06-22T04:16:02;17.25;;;15.50;;
1593;SDS011;790;47.000;16.084;2023-06-22T04:18:31;18.48;;;16.20;;
1593;SDS011;790;47.000;16.084;2023-06-22T04:20:58;17.27;;;15.63;;
1593;SDS011;790;47.000;16.084;2023-06-22T04:23:25;17.00;;;15.35;;
1593;SDS011;790;47.000;16.084;2023-06-22T04:25:52;19.35;;;17.20;;
1593;SDS011;790;47.000;16.084;2023-06-22T04:28:21;19.13;;;17.02;;
1593;SDS011;790;47.000;16.084;2023-06-22T04:30:48;20.38;;;18.33;;
1593;SDS011;790;47.000;16.084;2023-06-22T04:33:17;18.77;;;16.83;;
1593;SDS011;790;47.000;16.084;2023-06-22T04:35:44;21.55;;;18.17;;
1593;SDS011;790;47.000;16.084;2023-06-22T04:38:12;19.15;;;17.42;;
1593;SDS011;790;47.000;16.084;2023-06-22T04:40:39;19.17;;;17.23;;
1593;SDS011;790;47.000;16.084;2023-06-22T04:43:06;21.05;;;18.83;;
1593;SDS011;790;47.000;16.084;2023-06-22T04:45:35;23.33;;;17.85;;
1593;SDS011;790;47.000;16.084;2023-06-22T04:48:03;20.58;;;17.77;;
1593;SDS011;790;47.000;16.084;2023-06-22T04:50:32;18.98;;;16.88;;
1593;SDS011;790;47.000;16.084;2023-06-22T04:52:59;19.10;;;17.10;;
1593;SDS011;790;47.000;16.084;2023-06-22T04:55:30;20.38;;;18.23;;
1593;SDS011;790;47.000;16.084;2023-06-22T04:57:58;17.33;;;15.52;;
1593;SDS011;790;47.000;16.084;2023-06-22T05:00:30;16.80;;;15.07;;
1593;SDS011;790;47.000;16.084;2023-06-22T05:02:57;17.15;;;14.52;;
1593;SDS011;790;47.000;16.084;2023-06-22T05:05:25;17.38;;;14.95;;
1593;SDS011;790;47.000;16.084;2023-06-22T05:07:53;15.98;;;14.20;;
1593;SDS011;790;47.000;16.084;2023-06-22T05:10:25;14.98;;;12.70;;
1593;SDS011;790;47.000;16.084;2023-06-22T05:12:52;19.33;;;13.98;;
1593;SDS011;790;47.000;16.084;2023-06-22T05:15:20;15.50;;;13.85;;
1593;SDS011;790;47.000;16.084;2023-06-22T05:17:52;13.90;;;12.70;;
1593;SDS011;790;47.000;16.084;2023-06-22T05:20:20;18.33;;;13.18;;
1593;SDS011;790;47.000;16.084;2023-06-22T05:22:47;14.02;;;11.85;;
1593;SDS011;790;47.000;16.084;2023-06-22T05:25:17;15.82;;;12.77;;
1593;SDS011;790;47.000;16.084;2023-06-22T05:27:44;14.20;;;12.85;;
1593;SDS011;790;47.000;16.084;2023-06-22T05:30:12;14.88;;;12.52;;
1593;SDS011;790;47.000;16.084;2023-06-22T05:32:41;13.85;;;11.90;;
1593;SDS011;790;47.000;16.084;2023-06-22T05:35:09;13.38;;;12.13;;
1593;SDS011;790;47.000;16.084;2023-06-22T05:37:36;16.15;;;12.57;;
1593;SDS011;790;47.000;16.084;2023-06-22T05:40:04;13.80;;;12.40;;
1593;SDS011;790;47.000;16.084;2023-06-22T05:42:34;13.77;;;12.48;;
1593;SDS011;790;47.000;16.084;2023-06-22T05:45:01;18.52;;;12.95;;
1593;SDS011;790;47.000;16.084;2023-06-22T05:47:28;14.50;;;11.82;;
1593;SDS011;790;47.000;16.084;2023-06-22T05:49:55;14.60;;;12.15;;
1593;SDS011;790;47.000;16.084;2023-06-22T05:52:23;12.90;;;11.55;;
1593;SDS011;790;47.000;16.084;2023-06-22T05:54:50;18.50;;;12.50;;
1593;SDS011;790;47.000;16.084;2023-06-22T05:57:17;15.15;;;12.23;;
1593;SDS011;790;47.000;16.084;2023-06-22T05:59:48;13.55;;;12.15;;
1593;SDS011;790;47.000;16.084;2023-06-22T06:02:15;16.00;;;13.40;;
1593;SDS011;790;47.000;16.084;2023-06-22T06:04:43;18.00;;;13.55;;
1593;SDS011;790;47.000;16.084;2023-06-22T06:07:12;21.42;;;13.57;;
1593;SDS011;790;47.000;16.084;2023-06-22T06:09:39;14.85;;;13.15;;
1593;SDS011;790;47.000;16.084;2023-06-22T06:12:06;15.27;;;12.45;;
1593;SDS011;790;47.000;16.084;2023-06-22T06:14:34;14.15;;;12.60;;
1593;SDS011;790;47.000;16.084;2023-06-22T06:17:03;14.52;;;12.38;;
1593;SDS011;790;47.000;16.084;2023-06-22T06:19:31;18.40;;;12.73;;
1593;SDS011;790;47.000;16.084;2023-06-22T06:21:58;15.90;;;11.98;;
1593;SDS011;790;47.000;16.084;2023-06-22T06:24:27;15.35;;;11.57;;
1593;SDS011;790;47.000;16.084;2023-06-22T06:26:54;12.35;;;10.95;;
1593;SDS011;790;47.000;16.084;2023-06-22T06:29:21;14.13;;;10.77;;
1593;SDS011;790;47.000;16.084;2023-06-22T06:31:48;11.38;;;10.25;;
1593;SDS011;790;47.000;16.084;2023-06-22T06:34:17;13.60;;;9.68;;
1593;SDS011;790;47.000;16.084;2023-06-22T06:36:44;13.02;;;9.68;;
1593;SDS011;790;47.000;16.084;2023-06-22T06:39:12;11.10;;;9.05;;
1593;SDS011;790;47.000;16.084;2023-06-22T06:41:43;11.93;;;9.43;;
1593;SDS011;790;47.000;16.084;2023-06-22T06:44:11;12.73;;;10.23;;
1593;SDS011;790;47.000;16.084;2023-06-22T06:46:40;13.35;;;9.63;;
1593;SDS011;790;47.000;16.084;2023-06-22T06:49:08;35.20;;;31.40;;
1593;SDS011;790;47.000;16.084;2023-06-22T06:51:37;15.98;;;10.90;;
1593;SDS011;790;47.000;16.084;2023-06-22T06:54:04;15.45;;;9.63;;
1593;SDS011;790;47.000;16.084;2023-06-22T06:56:31;15.43;;;9.23;;
1593;SDS011;790;47.000;16.084;2023-06-22T06:58:58;13.13;;;9.90;;
1593;SDS011;790;47.000;16.084;2023-06-22T07:01:25;15.50;;;11.35;;
1593;SDS011;790;47.000;16.084;2023-06-22T07:03:53;13.85;;;10.60;;
1593;SDS011;790;47.000;16.084;2023-06-22T07:06:20;15.07;;;11.20;;
1593;SDS011;790;47.000;16.084;2023-06-22T07:08:51;13.25;;;10.85;;
1593;SDS011;790;47.000;16.084;2023-06-22T07:11:18;14.65;;;11.35;;
1593;SDS011;790;47.000;16.084;2023-06-22T07:13:45;14.77;;;11.40;;
1593;SDS011;790;47.000;16.084;2023-06-22T07:16:13;13.60;;;10.68;;
1593;SDS011;790;47.000;16.084;2023-06-22T07:18:40;12.30;;;11.00;;
1593;SDS011;790;47.000;16.084;2023-06-22T07:21:07;15.02;;;11.40;;
1593;SDS011;790;47.000;16.084;2023-06-22T07:23:34;16.42;;;10.70;;
1593;SDS011;790;47.000;16.084;2023-06-22T07:26:03;15.60;;;11.63;;
1593;SDS011;790;47.000;16.084;2023-06-22T07:28:35;14.13;;;10.48;;
1593;SDS011;790;47.000;16.084;2023-06-22T07:31:03;13.75;;;11.32;;
1593;SDS011;790;47.000;16.084;2023-06-22T07:33:30;14.48;;;10.98;;
1593;SDS011;790;47.000;16.084;2023-06-22T07:35:57;11.68;;;10.38;;
1593;SDS011;790;47.000;16.084;2023-06-22T07:38:24;13.68;;;10.25;;
1593;SDS011;790;47.000;16.084;2023-06-22T07:40:53;14.75;;;9.90;;
1593;SDS011;790;47.000;16.084;2023-06-22T07:43:22;13.27;;;10.65;;
1593;SDS011;790;47.000;16.084;2023-06-22T07:45:51;14.50;;;10.38;;
1593;SDS011;790;47.000;16.084;2023-06-22T07:48:25;14.90;;;10.27;;
1593;SDS011;790;47.000;16.084;2023-06-22T07:50:52;12.32;;;9.02;;
1593;SDS011;790;47.000;16.084;2023-06-22T07:53:19;11.80;;;9.40;;
1593;SDS011;790;47.000;16.084;2023-06-22T07:55:46;11.55;;;9.73;;
1593;SDS011;790;47.000;16.084;2023-06-22T07:58:17;17.23;;;10.27;;
1593;SDS011;790;47.000;16.084;2023-06-22T08:00:47;10.52;;;8.68;;
1593;SDS011;790;47.000;16.084;2023-06-22T08:03:15;15.77;;;9.82;;
1593;SDS011;790;47.000;16.084;2023-06-22T08:05:50;14.60;;;8.52;;
1593;SDS011;790;47.000;16.084;2023-06-22T08:08:18;12.13;;;9.32;;
1593;SDS011;790;47.000;16.084;2023-06-22T08:10:51;13.57;;;9.25;;
1593;SDS011;790;47.000;16.084;2023-06-22T08:13:18;14.13;;;9.93;;
1593;SDS011;790;47.000;16.084;2023-06-22T08:15:49;11.10;;;9.95;;
1593;SDS011;790;47.000;16.084;2023-06-22T08:18:17;11.93;;;9.38;;
1593;SDS011;790;47.000;16.084;2023-06-22T08:20:46;10.93;;;9.00;;
1593;SDS011;790;47.000;16.084;2023-06-22T08:23:14;10.88;;;9.80;;
1593;SDS011;790;47.000;16.084;2023-06-22T08:25:42;12.25;;;9.65;;
1593;SDS011;790;47.000;16.084;2023-06-22T08:28:10;13.27;;;10.15;;
1593;SDS011;790;47.000;16.084;2023-06-22T08:30:39;11.88;;;9.60;;
1593;SDS011;790;47.000;16.084;2023-06-22T08:33:08;12.60;;;9.43;;
1593;SDS011;790;47.000;16.084;2023-06-22T08:35:36;14.80;;;10.05;;
1593;SDS011;790;47.000;16.084;2023-06-22T08:38:04;14.48;;;10.48;;
1593;SDS011;790;47.000;16.084;2023-06-22T08:40:32;12.43;;;10.20;;
1593;SDS011;790;47.000;16.084;2023-06-22T08:43:00;10.52;;;9.48;;
1593;SDS011;790;47.000;16.084;2023-06-22T08:45:28;12.23;;;9.75;;
1593;SDS011;790;47.000;16.084;2023-06-22T08:47:55;13.57;;;10.23;;
1593;SDS011;790;47.000;16.084;2023-06-22T08:50:24;12.45;;;9.73;;
1593;SDS011;790;47.000;16.084;2023-06-22T08:52:52;11.32;;;10.10;;
1593;SDS011;790;47.000;16.084;2023-06-22T08:55:21;12.38;;;9.98;;
1593;SDS011;790;47.000;16.084;2023-06-22T09:00:19;13.68;;;10.35;;
1593;SDS011;790;47.000;16.084;2023-06-22T09:02:46;11.75;;;10.50;;
1593;SDS011;790;47.000;16.084;2023-06-22T09:05:14;11.65;;;10.55;;
1593;SDS011;790;47.000;16.084;2023-06-22T09:07:46;13.05;;;10.77;;
1593;SDS011;790;47.000;16.084;2023-06-22T09:10:18;16.05;;;10.30;;
1593;SDS011;790;47.000;16.084;2023-06-22T09:12:48;16.98;;;10.98;;
1593;SDS011;790;47.000;16.084;2023-06-22T09:15:16;12.48;;;11.15;;
1593;SDS011;790;47.000;16.084;2023-06-22T09:17:44;12.25;;;10.85;;
1593;SDS011;790;47.000;16.084;2023-06-22T09:20:12;13.55;;;10.85;;
1593;SDS011;790;47.000;16.084;2023-06-22T09:22:41;12.55;;;10.63;;
1593;SDS011;790;47.000;16.084;2023-06-22T09:25:11;14.65;;;10.85;;
1593;SDS011;790;47.000;16.084;2023-06-22T09:27:39;15.32;;;11.02;;
1593;SDS011;790;47.000;16.084;2023-06-22T09:30:06;11.95;;;10.45;;
1593;SDS011;790;47.000;16.084;2023-06-22T09:32:34;13.43;;;11.38;;
1593;SDS011;790;47.000;16.084;2023-06-22T09:35:04;13.13;;;10.80;;
1593;SDS011;790;47.000;16.084;2023-06-22T09:37:33;12.02;;;10.95;;
1593;SDS011;790;47.000;16.084;2023-06-22T09:40:07;12.95;;;10.48;;
1593;SDS011;790;47.000;16.084;2023-06-22T09:45:10;11.23;;;9.77;;
1593;SDS011;790;47.000;16.084;2023-06-22T09:47:38;11.35;;;10.25;;
1593;SDS011;790;47.000;16.084;2023-06-22T09:50:06;11.25;;;9.88;;
1593;SDS011;790;47.000;16.084;2023-06-22T09:52:33;13.38;;;10.52;;
1593;SDS011;790;47.000;16.084;2023-06-22T09:55:02;12.73;;;10.18;;
1593;SDS011;790;47.000;16.084;2023-06-22T09:57:30;15.50;;;11.00;;
1593;SDS011;790;47.000;16.084;2023-06-22T10:00:01;11.10;;;10.02;;
1593;SDS011;790;47.000;16.084;2023-06-22T10:02:34;12.18;;;10.77;;
1593;SDS011;790;47.000;16.084;2023-06-22T10:05:07;11.98;;;10.77;;
1593;SDS011;790;47.000;16.084;2023-06-22T10:07:34;13.05;;;11.15;;
1593;SDS011;790;47.000;16.084;2023-06-22T10:10:05;15.30;;;11.00;;
1593;SDS011;790;47.000;16.084;2023-06-22T10:12:33;12.75;;;11.43;;
1593;SDS011;790;47.000;16.084;2023-06-22T10:15:02;13.70;;;11.13;;
1593;SDS011;790;47.000;16.084;2023-06-22T10:17:29;12.35;;;11.07;;
1593;SDS011;790;47.000;16.084;2023-06-22T10:20:00;12.38;;;11.07;;
1593;SDS011;790;47.000;16.084;2023-06-22T10:22:32;12.02;;;10.73;;
1593;SDS011;790;47.000;16.084;2023-06-22T10:25:00;14.98;;;12.18;;
1593;SDS011;790;47.000;16.084;2023-06-22T10:32:30;12.95;;;11.02;;
1593;SDS011;790;47.000;16.084;2023-06-22T10:34:58;14.10;;;12.38;;
1593;SDS011;790;47.000;16.084;2023-06-22T10:37:31;16.15;;;11.85;;
1593;SDS011;790;47.000;16.084;2023-06-22T10:40:01;15.85;;;12.18;;
1593;SDS011;790;47.000;16.084;2023-06-22T10:42:30;13.48;;;10.93;;
1593;SDS011;790;47.000;16.084;2023-06-22T10:44:59;13.55;;;12.15;;
1593;SDS011;790;47.000;16.084;2023-06-22T10:47:31;14.45;;;12.00;;
1593;SDS011;790;47.000;16.084;2023-06-22T10:50:06;14.00;;;11.95;;
1593;SDS011;790;47.000;16.084;2023-06-22T10:52:43;14.70;;;12.15;;
1593;SDS011;790;47.000;16.084;2023-06-22T10:55:19;13.20;;;12.00;;
1593;SDS011;790;47.000;16.084;2023-06-22T10:57:47;14.13;;;12.73;;
1593;SDS011;790;47.000;16.084;2023-06-22T11:00:16;13.63;;;12.27;;
1593;SDS011;790;47.000;16.084;2023-06-22T11:02:49;13.23;;;11.75;;
1593;SDS011;790;47.000;16.084;2023-06-22T11:05:16;14.13;;;12.32;;
1593;SDS011;790;47.000;16.084;2023-06-22T11:07:45;19.83;;;12.45;;
1593;SDS011;790;47.000;16.084;2023-06-22T11:10:15;13.73;;;12.32;;
1593;SDS011;790;47.000;16.084;2023-06-22T11:12:48;15.00;;;12.40;;
1593;SDS011;790;47.000;16.084;2023-06-22T11:15:17;15.95;;;12.40;;
1593;SDS011;790;47.000;16.084;2023-06-22T11:17:48;15.10;;;12.40;;
1593;SDS011;790;47.000;16.084;2023-06-22T11:20:16;13.70;;;12.38;;
1593;SDS011;790;47.000;16.084;2023-06-22T11:22:44;15.80;;;12.15;;
1593;SDS011;790;47.000;16.084;2023-06-22T11:25:12;13.43;;;12.02;;
1593;SDS011;790;47.000;16.084;2023-06-22T11:27:41;14.35;;;11.32;;
1593;SDS011;790;47.000;16.084;2023-06-22T11:30:09;15.10;;;12.02;;
1593;SDS011;790;47.000;16.084;2023-06-22T11:32:37;14.38;;;11.77;;
1593;SDS011;790;47.000;16.084;2023-06-22T11:37:39;15.82;;;12.10;;
1593;SDS011;790;47.000;16.084;2023-06-22T11:40:09;15.55;;;12.40;;
1593;SDS011;790;47.000;16.084;2023-06-22T11:42:36;12.80;;;10.88;;
1593;SDS011;790;47.000;16.084;2023-06-22T11:45:04;13.27;;;11.77;;
1593;SDS011;790;47.000;16.084;2023-06-22T11:47:41;13.77;;;12.35;;
1593;SDS011;790;47.000;16.084;2023-06-22T11:50:08;13.25;;;11.95;;
1593;SDS011;790;47.000;16.084;2023-06-22T11:52:40;13.38;;;12.07;;
1593;SDS011;790;47.000;16.084;2023-06-22T11:55:07;15.73;;;12.45;;
1593;SDS011;790;47.000;16.084;2023-06-22T11:57:36;16.15;;;12.00;;
1593;SDS011;790;47.000;16.084;2023-06-22T12:00:03;12.82;;;11.50;;
1593;SDS011;790;47.000;16.084;2023-06-22T12:02:47;14.38;;;10.93;;
1593;SDS011;790;47.000;16.084;2023-06-22T12:05:16;15.57;;;11.13;;
1593;SDS011;790;47.000;16.084;2023-06-22T12:07:50;11.70;;;10.30;;
1593;SDS011;790;47.000;16.084;2023-06-22T12:10:20;17.52;;;11.05;;
1593;SDS011;790;47.000;16.084;2023-06-22T12:13:04;16.63;;;11.18;;
1593;SDS011;790;47.000;16.084;2023-06-22T12:15:32;15.13;;;10.93;;
1593;SDS011;790;47.000;16.084;2023-06-22T12:18:08;11.50;;;10.35;;
1593;SDS011;790;47.000;16.084;2023-06-22T12:20:37;15.57;;;11.15;;
1593;SDS011;790;47.000;16.084;2023-06-22T12:23:05;16.95;;;10.75;;
1593;SDS011;790;47.000;16.084;2023-06-22T12:25:33;13.75;;;10.18;;
1593;SDS011;790;47.000;16.084;2023-06-22T12:28:01;13.57;;;10.90;;
1593;SDS011;790;47.000;16.084;2023-06-22T12:30:41;12.35;;;10.02;;
1593;SDS011;790;47.000;16.084;2023-06-22T12:33:08;13.30;;;10.65;;
1593;SDS011;790;47.000;16.084;2023-06-22T12:35:36;11.50;;;10.40;;
1593;SDS011;790;47.000;16.084;2023-06-22T12:38:04;13.65;;;10.90;;
1593;SDS011;790;47.000;16.084;2023-06-22T12:40:32;14.00;;;10.52;;
1593;SDS011;790;47.000;16.084;2023-06-22T12:43:10;13.60;;;10.73;;
1593;SDS011;790;47.000;16.084;2023-06-22T12:45:38;14.25;;;10.50;;
1593;SDS011;790;47.000;16.084;2023-06-22T12:50:41;11.73;;;10.30;;
1593;SDS011;790;47.000;16.084;2023-06-22T12:53:11;13.43;;;9.90;;
1593;SDS011;790;47.000;16.084;2023-06-22T12:55:39;12.40;;;9.98;;
1593;SDS011;790;47.000;16.084;2023-06-22T12:58:11;16.25;;;9.70;;
1593;SDS011;790;47.000;16.084;2023-06-22T13:00:40;11.95;;;10.20;;
1593;SDS011;790;47.000;16.084;2023-06-22T13:03:07;15.27;;;10.15;;
1593;SDS011;790;47.000;16.084;2023-06-22T13:05:34;14.10;;;9.45;;
1593;SDS011;790;47.000;16.084;2023-06-22T13:08:03;14.50;;;9.85;;
1593;SDS011;790;47.000;16.084;2023-06-22T13:10:31;14.40;;;10.07;;
1593;SDS011;790;47.000;16.084;2023-06-22T13:12:58;16.63;;;10.30;;
1593;SDS011;790;47.000;16.084;2023-06-22T13:15:26;14.02;;;9.82;;
1593;SDS011;790;47.000;16.084;2023-06-22T13:17:53;12.73;;;9.70;;
1593;SDS011;790;47.000;16.084;2023-06-22T13:20:21;16.70;;;10.05;;
1593;SDS011;790;47.000;16.084;2023-06-22T13:22:48;14.18;;;9.77;;
1593;SDS011;790;47.000;16.084;2023-06-22T13:25:16;11.02;;;9.57;;
1593;SDS011;790;47.000;16.084;2023-06-22T13:27:46;14.40;;;10.30;;
1593;SDS011;790;47.000;16.084;2023-06-22T13:30:15;12.25;;;10.20;;
1593;SDS011;790;47.000;16.084;2023-06-22T13:32:42;13.45;;;10.00;;
1593;SDS011;790;47.000;16.084;2023-06-22T13:35:09;14.48;;;10.90;;
1593;SDS011;790;47.000;16.084;2023-06-22T13:37:36;12.88;;;10.65;;
1593;SDS011;790;47.000;16.084;2023-06-22T13:40:04;15.52;;;10.52;;
1593;SDS011;790;47.000;16.084;2023-06-22T13:42:37;12.85;;;10.65;;
1593;SDS011;790;47.000;16.084;2023-06-22T13:45:05;16.35;;;9.60;;
1593;SDS011;790;47.000;16.084;2023-06-22T13:47:33;14.32;;;10.35;;
1593;SDS011;790;47.000;16.084;2023-06-22T13:50:02;13.27;;;9.68;;
1593;SDS011;790;47.000;16.084;2023-06-22T13:52:29;17.60;;;10.93;;
1593;SDS011;790;47.000;16.084;2023-06-22T13:54:58;12.73;;;10.70;;
1593;SDS011;790;47.000;16.084;2023-06-22T13:57:25;13.82;;;11.20;;
1593;SDS011;790;47.000;16.084;2023-06-22T13:59:54;18.75;;;11.30;;
1593;SDS011;790;47.000;16.084;2023-06-22T14:02:21;18.85;;;10.25;;
1593;SDS011;790;47.000;16.084;2023-06-22T14:04:48;20.02;;;10.32;;
1593;SDS011;790;47.000;16.084;2023-06-22T14:07:17;19.38;;;10.80;;
1593;SDS011;790;47.000;16.084;2023-06-22T14:09:44;13.63;;;10.15;;
1593;SDS011;790;47.000;16.084;2023-06-22T14:12:11;13.77;;;10.55;;
1593;SDS011;790;47.000;16.084;2023-06-22T14:14:39;15.65;;;10.98;;
1593;SDS011;790;47.000;16.084;2023-06-22T14:17:08;12.57;;;10.35;;
1593;SDS011;790;47.000;16.084;2023-06-22T14:19:35;11.82;;;10.63;;
1593;SDS011;790;47.000;16.084;2023-06-22T14:22:02;14.43;;;11.15;;
1593;SDS011;790;47.000;16.084;2023-06-22T14:24:29;14.52;;;10.85;;
1593;SDS011;790;47.000;16.084;2023-06-22T14:26:56;14.02;;;11.15;;
1593;SDS011;790;47.000;16.084;2023-06-22T14:29:24;12.70;;;10.77;;
1593;SDS011;790;47.000;16.084;2023-06-22T14:31:52;15.82;;;11.27;;
1593;SDS011;790;47.000;16.084;2023-06-22T14:34:20;14.98;;;11.75;;
1593;SDS011;790;47.000;16.084;2023-06-22T14:36:48;16.27;;;10.80;;
1593;SDS011;790;47.000;16.084;2023-06-22T14:39:15;12.60;;;11.25;;
1593;SDS011;790;47.000;16.084;2023-06-22T14:41:42;15.98;;;11.93;;
1593;SDS011;790;47.000;16.084;2023-06-22T14:44:09;12.75;;;11.32;;
1593;SDS011;790;47.000;16.084;2023-06-22T14:46:36;18.42;;;11.32;;
1593;SDS011;790;47.000;16.084;2023-06-22T14:49:03;17.33;;;11.25;;
1593;SDS011;790;47.000;16.084;2023-06-22T14:51:32;14.25;;;11.48;;
1593;SDS011;790;47.000;16.084;2023-06-22T14:53:59;17.02;;;12.27;;
1593;SDS011;790;47.000;16.084;2023-06-22T14:56:26;13.38;;;11.15;;
1593;SDS011;790;47.000;16.084;2023-06-22T14:58:53;17.33;;;11.80;;
1593;SDS011;790;47.000;16.084;2023-06-22T15:01:20;13.38;;;11.98;;
1593;SDS011;790;47.000;16.084;2023-06-22T15:03:47;12.68;;;11.48;;
1593;SDS011;790;47.000;16.084;2023-06-22T15:06:14;17.95;;;12.50;;
1593;SDS011;790;47.000;16.084;2023-06-22T15:08:43;14.70;;;12.55;;
1593;SDS011;790;47.000;16.084;2023-06-22T15:11:10;13.50;;;11.88;;
1593;SDS011;790;47.000;16.084;2023-06-22T15:13:38;22.08;;;12.13;;
1593;SDS011;790;47.000;16.084;2023-06-22T15:16:06;15.88;;;11.45;;
1593;SDS011;790;47.000;16.084;2023-06-22T15:18:34;17.33;;;12.57;;